Time;durP1;ratioP1;P1;durP2;ratioP2;P2;SDS_P1;SDS_P2;PMS_P1;PMS_P2;Temp;Humidity;BMP_temperature;BMP_pressure;BME280_temperature;BME280_humidity;BME280_pressure;Samples;Min_cycle;Max_cycle;Signal;HPM_P1;HPM_P2
2021/03/08 00:00:36;;;;;;;16.23;4.97;;;3.60;99.90;;;;;;5024334;28;20876;-56
2021/03/08 00:03:06;;;;;;;13.00;3.87;;;3.50;99.90;;;;;;5053860;28;20479;-56
2021/03/08 00:05:34;;;;;;;10.17;3.53;;;3.50;99.90;;;;;;5068617;28;20538;-55
2021/03/08 00:08:02;;;;;;;12.13;3.63;;;3.40;99.90;;;;;;5068767;28;20481;-57
2021/03/08 00:10:30;;;;;;;11.83;4.33;;;3.20;99.90;;;;;;5021571;28;20552;-55
2021/03/08 00:12:57;;;;;;;14.87;3.70;;;3.50;99.90;;;;;;5014898;28;20472;-57
2021/03/08 00:15:24;;;;;;;16.30;3.97;;;3.60;99.90;;;;;;5019864;28;20482;-55
2021/03/08 00:17:53;;;;;;;15.13;3.50;;;3.30;99.90;;;;;;5028597;28;20491;-56
2021/03/08 00:20:24;;;;;;;12.67;3.70;;;3.10;99.90;;;;;;5028163;28;20674;-55
2021/03/08 00:22:52;;;;;;;14.10;3.33;;;3.20;99.90;;;;;;5027558;28;20523;-56
2021/03/08 00:25:23;;;;;;;16.97;3.50;;;3.20;99.90;;;;;;5035064;28;20971;-56
2021/03/08 00:27:50;;;;;;;13.73;3.50;;;3.00;99.90;;;;;;5028662;28;20520;-55
2021/03/08 00:30:19;;;;;;;11.03;3.30;;;2.60;99.90;;;;;;5027908;28;20503;-53
2021/03/08 00:32:48;;;;;;;9.93;3.27;;;2.60;99.90;;;;;;5044436;28;20482;-58
2021/03/08 00:35:17;;;;;;;11.97;3.83;;;2.70;99.90;;;;;;5047407;28;20966;-54
2021/03/08 00:37:46;;;;;;;12.90;4.27;;;2.70;99.90;;;;;;5048017;28;20560;-54
2021/03/08 00:40:16;;;;;;;12.73;3.57;;;2.60;99.90;;;;;;5048012;28;21098;-55
2021/03/08 00:42:44;;;;;;;12.57;3.80;;;2.70;99.90;;;;;;5043828;28;20488;-55
2021/03/08 00:45:14;;;;;;;10.40;3.13;;;2.70;99.90;;;;;;5045501;28;20485;-55
2021/03/08 00:47:48;;;;;;;9.73;3.00;;;2.40;99.90;;;;;;5026679;28;20492;-56
2021/03/08 00:50:25;;;;;;;14.33;3.40;;;2.40;99.90;;;;;;5028657;28;20491;-57
2021/03/08 00:52:54;;;;;;;12.23;3.20;;;2.70;99.90;;;;;;5055261;28;20514;-57
2021/03/08 00:55:22;;;;;;;15.10;3.67;;;2.60;99.90;;;;;;5055259;28;20969;-58
2021/03/08 00:57:50;;;;;;;12.00;3.80;;;2.70;99.90;;;;;;5062946;28;20530;-53
2021/03/08 01:00:24;;;;;;;10.87;3.20;;;2.90;99.90;;;;;;5062756;28;21195;-55
2021/03/08 01:02:56;;;;;;;10.87;3.43;;;3.00;99.90;;;;;;5054211;28;20490;-54
2021/03/08 01:05:28;;;;;;;14.37;3.90;;;3.00;99.90;;;;;;5042584;28;20571;-57
2021/03/08 01:07:58;;;;;;;11.43;4.07;;;3.10;99.90;;;;;;5033121;28;20468;-58
2021/03/08 01:10:33;;;;;;;9.37;3.33;;;2.90;99.90;;;;;;5040425;28;20476;-54
2021/03/08 01:13:06;;;;;;;17.07;4.13;;;3.00;99.90;;;;;;5049720;28;20850;-58
2021/03/08 01:15:34;;;;;;;12.37;3.43;;;3.20;99.90;;;;;;5037531;28;20477;-57
2021/03/08 01:18:04;;;;;;;13.17;3.37;;;3.10;99.90;;;;;;5047084;28;20995;-58
2021/03/08 01:20:31;;;;;;;12.50;3.27;;;2.90;99.90;;;;;;5038818;28;20500;-54
2021/03/08 01:22:59;;;;;;;12.67;3.57;;;2.80;99.90;;;;;;5047547;28;20492;-53
2021/03/08 01:25:30;;;;;;;14.10;3.53;;;2.80;99.90;;;;;;5046441;28;20865;-56
2021/03/08 01:27:58;;;;;;;14.83;3.53;;;2.70;99.90;;;;;;5047357;28;20530;-55
2021/03/08 01:30:29;;;;;;;12.03;3.40;;;2.70;99.90;;;;;;5037790;28;20514;-52
2021/03/08 01:32:56;;;;;;;8.63;2.90;;;2.40;99.90;;;;;;5053303;28;20484;-56
2021/03/08 01:35:24;;;;;;;13.03;3.47;;;2.40;99.90;;;;;;5066866;28;20528;-55
2021/03/08 01:37:52;;;;;;;9.93;2.80;;;2.20;99.90;;;;;;5067425;28;20509;-55
2021/03/08 01:40:23;;;;;;;15.53;4.23;;;2.40;99.90;;;;;;5046574;28;20475;-55
2021/03/08 01:42:52;;;;;;;11.07;3.70;;;2.40;99.90;;;;;;5027659;28;20606;-54
2021/03/08 01:45:20;;;;;;;9.07;2.87;;;2.50;99.90;;;;;;5026688;28;20830;-55
2021/03/08 01:47:50;;;;;;;8.97;3.10;;;2.40;99.90;;;;;;5024424;28;20480;-55
2021/03/08 01:50:21;;;;;;;10.40;3.43;;;2.60;99.90;;;;;;5019418;28;20571;-56
2021/03/08 01:52:50;;;;;;;12.43;3.97;;;2.70;99.90;;;;;;5020319;28;20478;-53
2021/03/08 01:55:20;;;;;;;10.23;3.03;;;2.60;99.90;;;;;;5025307;28;20961;-56
2021/03/08 01:57:47;;;;;;;7.13;2.90;;;2.60;99.90;;;;;;5026498;28;21086;-57
2021/03/08 02:00:22;;;;;;;11.03;3.00;;;2.50;99.90;;;;;;5027318;28;20497;-56
2021/03/08 02:02:50;;;;;;;11.23;3.10;;;2.40;99.90;;;;;;5027059;28;20993;-53
2021/03/08 02:05:21;;;;;;;10.37;3.00;;;2.50;99.90;;;;;;5025864;28;20477;-55
2021/03/08 02:07:49;;;;;;;10.37;3.13;;;2.50;99.90;;;;;;5033711;28;20911;-55
2021/03/08 02:10:18;;;;;;;9.80;3.10;;;2.50;99.90;;;;;;5034421;28;20479;-57
2021/03/08 02:13:06;;;;;;;11.13;2.83;;;2.50;99.90;;;;;;5037301;28;20486;-56
2021/03/08 02:15:44;;;;;;;8.77;3.40;;;2.30;99.90;;;;;;5028077;28;20558;-57
2021/03/08 02:18:19;;;;;;;5.07;2.43;;;2.40;99.90;;;;;;5032951;28;20488;-55
2021/03/08 02:20:56;;;;;;;13.67;3.53;;;2.40;99.90;;;;;;5061745;28;20970;-57
2021/03/08 02:23:55;;;;;;;9.87;3.60;;;2.40;99.90;;;;;;5059739;28;20489;-57
2021/03/08 02:26:34;;;;;;;10.47;3.27;;;2.30;99.90;;;;;;5050606;28;21322;-53
2021/03/08 02:29:45;;;;;;;8.90;2.87;;;2.20;99.90;;;;;;5050319;28;20511;-54
2021/03/08 02:32:14;;;;;;;8.97;2.90;;;2.10;99.90;;;;;;5050232;28;20481;-54
2021/03/08 02:34:52;;;;;;;12.40;4.10;;;2.10;99.90;;;;;;5050040;28;20485;-55
2021/03/08 02:37:27;;;;;;;11.43;3.60;;;2.10;99.90;;;;;;5050264;28;20961;-54
2021/03/08 02:40:04;;;;;;;10.27;3.67;;;2.00;99.90;;;;;;5045297;28;20500;-57
2021/03/08 02:42:37;;;;;;;7.83;3.77;;;2.10;99.90;;;;;;5010926;28;20561;-53
2021/03/08 02:45:08;;;;;;;8.53;3.53;;;2.20;99.90;;;;;;5014279;28;20566;-56
2021/03/08 02:47:42;;;;;;;10.97;3.93;;;2.20;99.90;;;;;;5039972;28;21070;-56
2021/03/08 02:50:12;;;;;;;12.80;4.03;;;2.10;99.90;;;;;;5042609;28;20554;-55
2021/03/08 02:52:45;;;;;;;8.50;3.63;;;2.00;99.90;;;;;;5021958;28;20516;-52
2021/03/08 02:55:13;;;;;;;7.57;2.87;;;1.90;99.90;;;;;;5012394;28;20561;-53
2021/03/08 02:57:43;;;;;;;6.50;3.57;;;2.00;99.90;;;;;;5009949;28;20570;-54
2021/03/08 03:00:13;;;;;;;13.63;3.70;;;1.90;99.90;;;;;;5022868;28;20511;-55
2021/03/08 03:03:09;;;;;;;7.40;3.37;;;1.80;99.90;;;;;;5041190;28;20483;-56
2021/03/08 03:05:39;;;;;;;9.90;3.00;;;1.90;99.90;;;;;;5022000;28;20466;-55
2021/03/08 03:08:09;;;;;;;8.37;3.20;;;2.00;99.90;;;;;;5029733;28;21265;-53
2021/03/08 03:10:38;;;;;;;9.60;3.17;;;2.10;99.90;;;;;;5010083;28;20572;-54
2021/03/08 03:13:06;;;;;;;10.67;3.07;;;2.10;99.90;;;;;;5010226;28;20890;-55
2021/03/08 03:15:38;;;;;;;10.63;2.93;;;2.00;99.90;;;;;;5028323;28;20478;-54
2021/03/08 03:18:07;;;;;;;8.40;2.70;;;1.90;99.90;;;;;;5027441;28;20480;-56
2021/03/08 03:20:37;;;;;;;7.90;3.20;;;1.80;99.90;;;;;;5029783;28;20614;-56
2021/03/08 03:23:06;;;;;;;7.70;3.17;;;1.80;99.90;;;;;;5030155;28;20484;-54
2021/03/08 03:25:34;;;;;;;9.63;2.73;;;1.70;99.90;;;;;;5029538;28;20559;-55
2021/03/08 03:28:02;;;;;;;7.83;2.70;;;1.20;99.90;;;;;;5016759;28;20488;-57
2021/03/08 03:30:32;;;;;;;6.30;2.53;;;1.10;99.90;;;;;;5048976;28;20499;-57
2021/03/08 03:32:59;;;;;;;7.60;3.27;;;0.90;99.90;;;;;;5029728;28;20788;-57
2021/03/08 03:35:29;;;;;;;9.67;3.53;;;1.30;99.90;;;;;;5028973;28;20547;-56
2021/03/08 03:37:59;;;;;;;8.67;3.33;;;1.50;99.90;;;;;;5039900;28;20480;-54
2021/03/08 03:40:26;;;;;;;9.13;2.97;;;1.60;99.90;;;;;;5048771;28;20478;-55
2021/03/08 03:42:54;;;;;;;7.07;3.07;;;1.60;99.90;;;;;;5042892;28;20513;-56
2021/03/08 03:45:24;;;;;;;8.37;3.47;;;1.70;99.90;;;;;;5035069;28;20491;-55
2021/03/08 03:47:52;;;;;;;7.53;2.70;;;1.70;99.90;;;;;;5040723;28;20477;-53
2021/03/08 03:50:22;;;;;;;9.63;3.20;;;1.60;99.90;;;;;;5046119;28;20499;-53
2021/03/08 03:52:50;;;;;;;9.03;3.03;;;1.50;99.90;;;;;;5034279;28;20526;-53
2021/03/08 03:55:20;;;;;;;8.07;3.20;;;1.40;99.90;;;;;;5048031;28;21373;-55
2021/03/08 03:58:03;;;;;;;6.23;2.97;;;1.30;99.90;;;;;;5041428;28;21070;-57
2021/03/08 04:00:34;;;;;;;6.93;2.90;;;1.30;99.90;;;;;;5030675;28;20472;-55
2021/03/08 04:03:06;;;;;;;7.80;2.93;;;1.30;99.90;;;;;;5035906;28;20572;-55
2021/03/08 04:05:35;;;;;;;6.37;3.10;;;1.30;99.90;;;;;;5038001;28;20554;-54
2021/03/08 04:08:05;;;;;;;7.07;2.90;;;1.40;99.90;;;;;;5045413;28;20530;-57
2021/03/08 04:10:34;;;;;;;9.50;3.63;;;1.50;99.90;;;;;;5051613;28;20971;-55
2021/03/08 04:13:06;;;;;;;9.90;3.30;;;1.40;99.90;;;;;;5068024;28;20490;-54
2021/03/08 04:15:34;;;;;;;8.07;3.10;;;1.60;99.90;;;;;;5067275;28;20505;-56
2021/03/08 04:18:03;;;;;;;5.73;2.83;;;1.60;99.90;;;;;;5055328;28;20541;-55
2021/03/08 04:20:32;;;;;;;4.83;3.07;;;1.40;99.90;;;;;;5041006;28;20483;-54
2021/03/08 04:23:07;;;;;;;8.33;3.00;;;1.40;99.90;;;;;;5027643;28;20571;-55
2021/03/08 04:25:35;;;;;;;8.20;3.13;;;1.30;99.90;;;;;;5033125;28;20497;-53
2021/03/08 04:28:05;;;;;;;9.93;3.17;;;1.20;99.90;;;;;;5044373;28;20508;-56
2021/03/08 04:30:33;;;;;;;6.30;3.10;;;1.20;99.90;;;;;;5026882;28;20437;-56
2021/03/08 04:33:01;;;;;;;7.70;3.03;;;1.10;99.90;;;;;;5027582;28;20712;-54
2021/03/08 04:35:31;;;;;;;7.53;3.20;;;1.00;99.90;;;;;;5026775;28;20486;-57
2021/03/08 04:37:59;;;;;;;8.57;3.13;;;1.00;99.90;;;;;;5044549;28;21048;-53
2021/03/08 04:40:28;;;;;;;8.30;3.40;;;0.90;99.90;;;;;;5033906;28;20483;-53
2021/03/08 04:42:56;;;;;;;5.10;2.87;;;1.00;99.90;;;;;;5037515;28;21262;-57
2021/03/08 04:45:23;;;;;;;10.40;3.20;;;1.00;99.90;;;;;;5044057;28;21352;-57
2021/03/08 04:47:52;;;;;;;8.70;3.00;;;1.00;99.90;;;;;;5026030;28;20555;-56
2021/03/08 04:50:19;;;;;;;4.37;2.50;;;1.00;99.90;;;;;;5027149;28;20654;-55
2021/03/08 04:52:50;;;;;;;6.07;2.10;;;1.10;99.90;;;;;;5026949;28;20489;-56
2021/03/08 04:55:18;;;;;;;6.23;2.93;;;1.00;99.90;;;;;;5026427;28;20525;-54
2021/03/08 04:57:46;;;;;;;5.47;2.73;;;0.80;99.90;;;;;;5025226;28;20527;-55
2021/03/08 05:00:15;;;;;;;7.27;3.20;;;0.80;99.90;;;;;;5032786;28;20488;-55
2021/03/08 05:02:44;;;;;;;5.20;2.77;;;0.80;99.90;;;;;;5012715;28;20552;-54
2021/03/08 05:05:20;;;;;;;7.13;2.70;;;0.70;99.90;;;;;;5018413;28;20564;-57
2021/03/08 05:07:49;;;;;;;5.50;2.60;;;0.70;99.90;;;;;;5011715;28;20570;-56
2021/03/08 05:10:18;;;;;;;5.23;3.37;;;0.80;99.90;;;;;;5012077;28;20542;-53
2021/03/08 05:12:49;;;;;;;7.40;3.60;;;1.00;99.90;;;;;;5008300;28;20666;-55
2021/03/08 05:15:18;;;;;;;10.07;3.37;;;1.10;99.90;;;;;;5007912;28;20487;-54
2021/03/08 05:17:48;;;;;;;8.77;3.00;;;1.10;99.90;;;;;;5011318;28;20479;-55
2021/03/08 05:20:16;;;;;;;10.73;3.33;;;1.00;99.90;;;;;;5026044;28;21013;-54
2021/03/08 05:22:46;;;;;;;7.60;3.03;;;0.90;99.90;;;;;;5029037;28;20495;-54
2021/03/08 05:25:14;;;;;;;8.03;2.70;;;0.80;99.90;;;;;;5016229;28;20569;-57
2021/03/08 05:27:44;;;;;;;5.37;2.90;;;0.70;99.90;;;;;;5042293;28;20474;-53
2021/03/08 05:30:17;;;;;;;3.90;2.40;;;0.60;99.90;;;;;;5010946;28;20932;-57
2021/03/08 05:33:11;;;;;;;8.37;3.03;;;0.60;99.90;;;;;;5007893;28;20557;-54
2021/03/08 05:35:41;;;;;;;8.10;3.20;;;0.70;99.90;;;;;;5007863;28;20476;-54
2021/03/08 05:38:10;;;;;;;11.20;3.83;;;0.90;99.90;;;;;;5040318;28;20530;-54
2021/03/08 05:40:44;;;;;;;8.53;3.20;;;0.80;99.90;;;;;;5039169;28;20827;-53
2021/03/08 05:43:14;;;;;;;9.70;3.67;;;0.90;99.90;;;;;;5043983;28;20504;-55
2021/03/08 05:45:56;;;;;;;11.90;4.30;;;0.80;99.90;;;;;;5055566;28;20516;-53
2021/03/08 05:49:02;;;;;;;6.80;4.17;;;0.80;99.90;;;;;;5046233;28;20513;-55
2021/03/08 05:52:32;;;;;;;8.27;3.80;;;0.80;99.90;;;;;;5042664;28;20902;-55
2021/03/08 05:55:45;;;;;;;9.07;4.97;;;-0.10;99.90;;;;;;5036250;28;20521;-56
2021/03/08 05:58:29;;;;;;;9.40;3.43;;;0.00;99.90;;;;;;5033596;28;20808;-55
2021/03/08 06:01:29;;;;;;;11.80;3.93;;;0.30;99.90;;;;;;5039601;28;20728;-54
2021/03/08 06:04:24;;;;;;;7.17;2.90;;;-0.10;99.90;;;;;;5040752;28;20479;-54
2021/03/08 06:07:22;;;;;;;11.93;3.93;;;-0.40;99.90;;;;;;5041915;28;20597;-52
2021/03/08 06:09:56;;;;;;;8.83;3.73;;;0.20;99.90;;;;;;5044790;28;20952;-57
2021/03/08 06:12:28;;;;;;;9.53;4.30;;;0.20;99.90;;;;;;5046201;28;20474;-53
2021/03/08 06:14:58;;;;;;;12.00;3.93;;;-0.20;99.90;;;;;;5040542;28;20523;-55
2021/03/08 06:17:27;;;;;;;12.90;5.17;;;-0.20;99.90;;;;;;5045360;28;21139;-57
2021/03/08 06:19:57;;;;;;;9.13;4.40;;;0.60;99.90;;;;;;5051344;28;20487;-54
2021/03/08 06:22:25;;;;;;;13.37;5.07;;;0.80;99.90;;;;;;5050318;28;20525;-55
2021/03/08 06:24:53;;;;;;;14.17;5.30;;;0.90;99.90;;;;;;5049622;28;20990;-54
2021/03/08 06:27:22;;;;;;;12.63;5.37;;;1.00;99.90;;;;;;5041924;28;20544;-57
2021/03/08 06:29:52;;;;;;;12.23;5.07;;;0.90;99.90;;;;;;5047874;28;20905;-55
2021/03/08 06:32:20;;;;;;;14.37;6.13;;;0.80;99.90;;;;;;5041496;28;20491;-55
2021/03/08 06:34:49;;;;;;;9.90;6.03;;;1.00;99.90;;;;;;5055080;28;20488;-56
2021/03/08 06:37:16;;;;;;;13.97;6.73;;;1.20;99.90;;;;;;5050212;28;20847;-56
2021/03/08 06:39:45;;;;;;;14.10;6.13;;;1.30;99.90;;;;;;5051850;28;20485;-57
2021/03/08 06:42:16;;;;;;;12.10;5.73;;;1.20;99.90;;;;;;5045662;28;20484;-56
2021/03/08 06:44:46;;;;;;;11.40;6.23;;;1.00;99.90;;;;;;5050053;28;20470;-57
2021/03/08 06:47:14;;;;;;;10.73;5.07;;;1.00;99.90;;;;;;5048861;28;20471;-56
2021/03/08 06:49:42;;;;;;;8.17;4.37;;;0.50;99.90;;;;;;5049943;28;20486;-58
2021/03/08 06:52:12;;;;;;;10.73;4.20;;;0.20;99.90;;;;;;5047045;28;20521;-57
2021/03/08 06:54:41;;;;;;;9.53;4.27;;;0.00;99.90;;;;;;5039080;28;20591;-56
2021/03/08 06:57:25;;;;;;;7.43;3.53;;;-0.10;99.90;;;;;;5037773;28;20986;-57
2021/03/08 06:59:54;;;;;;;10.77;3.90;;;-0.20;99.90;;;;;;5035266;28;20502;-57
2021/03/08 07:02:34;;;;;;;8.33;4.10;;;-0.10;99.90;;;;;;5043374;28;20514;-55
2021/03/08 07:05:02;;;;;;;7.60;4.13;;;-0.10;99.90;;;;;;5029883;28;20572;-57
2021/03/08 07:07:46;;;;;;;8.43;4.20;;;-0.10;99.90;;;;;;5033210;28;20604;-58
2021/03/08 07:10:15;;;;;;;11.37;5.50;;;0.00;99.90;;;;;;5041257;28;20547;-56
2021/03/08 07:12:49;;;;;;;10.67;4.87;;;0.00;99.90;;;;;;5031211;28;20475;-57
2021/03/08 07:15:17;;;;;;;13.37;5.40;;;0.10;99.90;;;;;;5036681;28;20941;-57
2021/03/08 07:17:45;;;;;;;10.03;4.80;;;0.20;99.90;;;;;;4998708;28;20500;-55
2021/03/08 07:20:16;;;;;;;9.13;4.67;;;0.30;99.90;;;;;;986586;28;10002002;-56
2021/03/08 07:22:47;;;;;;;11.80;4.80;;;0.40;99.90;;;;;;5049048;28;20328;-57
2021/03/08 07:25:24;;;;;;;13.10;5.03;;;0.50;99.90;;;;;;5048801;28;20563;-56
2021/03/08 07:27:54;;;;;;;11.40;4.40;;;0.60;99.90;;;;;;5047265;28;20506;-58
2021/03/08 07:30:24;;;;;;;9.70;4.40;;;0.70;99.90;;;;;;5034025;28;20493;-56
2021/03/08 07:32:58;;;;;;;10.37;5.43;;;0.80;99.90;;;;;;5020139;28;20540;-56
2021/03/08 07:35:42;;;;;;;8.80;4.57;;;0.90;99.90;;;;;;5018804;28;20476;-56
2021/03/08 07:38:13;;;;;;;8.83;4.20;;;1.00;99.90;;;;;;5030665;28;20536;-57
2021/03/08 07:40:42;;;;;;;11.30;4.57;;;1.20;99.90;;;;;;5023843;28;20579;-54
2021/03/08 07:43:20;;;;;;;6.73;3.73;;;1.40;99.90;;;;;;5029278;28;20499;-57
2021/03/08 07:45:48;;;;;;;8.23;3.73;;;1.60;99.90;;;;;;5028026;28;20487;-57
2021/03/08 07:48:17;;;;;;;11.83;4.37;;;1.80;99.90;;;;;;5029346;28;20519;-56
2021/03/08 07:50:47;;;;;;;8.50;3.60;;;2.00;99.90;;;;;;5030508;28;20504;-53
2021/03/08 07:53:29;;;;;;;9.13;3.27;;;2.20;99.90;;;;;;5029460;28;20491;-55
2021/03/08 07:55:58;;;;;;;8.20;3.17;;;2.40;99.90;;;;;;5024434;28;20493;-56
2021/03/08 07:58:27;;;;;;;7.43;3.53;;;2.70;99.90;;;;;;5031411;28;20538;-55
2021/03/08 08:00:55;;;;;;;7.37;2.97;;;2.80;99.90;;;;;;5039094;28;20508;-57
2021/03/08 08:03:25;;;;;;;8.53;2.80;;;2.90;99.90;;;;;;5047241;28;21045;-55
2021/03/08 08:05:56;;;;;;;9.70;3.33;;;3.10;99.90;;;;;;5046156;28;20486;-57
2021/03/08 08:08:31;;;;;;;13.17;3.40;;;3.10;99.90;;;;;;5029191;28;20490;-56
2021/03/08 08:11:01;;;;;;;6.00;3.00;;;3.20;99.90;;;;;;5035543;28;20552;-57
2021/03/08 08:13:35;;;;;;;7.60;2.93;;;3.50;99.90;;;;;;5052556;28;20480;-56
2021/03/08 08:16:07;;;;;;;6.77;2.57;;;3.70;99.90;;;;;;5055614;28;20505;-56
2021/03/08 08:18:39;;;;;;;7.80;2.67;;;3.80;99.90;;;;;;5046529;28;20501;-55
2021/03/08 08:21:13;;;;;;;6.30;2.97;;;4.10;99.90;;;;;;5041742;28;20478;-57
2021/03/08 08:23:44;;;;;;;7.67;2.70;;;4.20;99.90;;;;;;5034309;28;20792;-57
2021/03/08 08:26:19;;;;;;;5.80;2.67;;;4.40;99.90;;;;;;5031885;28;20501;-53
2021/03/08 08:28:47;;;;;;;7.67;2.33;;;4.50;99.90;;;;;;5037326;28;20558;-55
2021/03/08 08:31:15;;;;;;;8.63;2.90;;;4.70;99.90;;;;;;5025211;28;20536;-53
2021/03/08 08:33:46;;;;;;;4.07;1.90;;;4.80;99.90;;;;;;5033114;28;21048;-54
2021/03/08 08:36:20;;;;;;;6.20;2.03;;;4.90;99.90;;;;;;5032896;28;20494;-55
2021/03/08 08:39:15;;;;;;;5.53;1.90;;;5.00;99.90;;;;;;5034325;28;20517;-56
2021/03/08 08:41:43;;;;;;;5.17;1.97;;;5.00;99.90;;;;;;5030082;28;20522;-54
2021/03/08 08:44:39;;;;;;;7.97;2.50;;;5.20;99.90;;;;;;5034568;28;21077;-55
2021/03/08 08:47:19;;;;;;;5.37;2.17;;;5.40;99.90;;;;;;5034988;28;20486;-54
2021/03/08 08:49:48;;;;;;;4.90;2.20;;;5.60;99.90;;;;;;5038063;28;20565;-56
2021/03/08 08:52:17;;;;;;;4.90;2.00;;;5.90;99.90;;;;;;5036151;28;20568;-55
2021/03/08 08:54:55;;;;;;;5.63;2.20;;;6.10;99.90;;;;;;5037030;28;20478;-56
2021/03/08 08:57:23;;;;;;;4.97;1.90;;;6.30;99.90;;;;;;5045219;28;20489;-53
2021/03/08 09:00:21;;;;;;;4.10;1.63;;;6.50;99.90;;;;;;5045266;28;20565;-54
2021/03/08 09:02:49;;;;;;;4.40;1.90;;;6.80;99.90;;;;;;5044669;28;20544;-55
2021/03/08 09:05:42;;;;;;;4.27;1.90;;;7.00;99.90;;;;;;5044399;28;20262;-57
2021/03/08 09:08:30;;;;;;;3.17;1.50;;;7.20;99.90;;;;;;5023349;28;20487;-56
2021/03/08 09:11:02;;;;;;;6.73;1.87;;;7.30;99.90;;;;;;5005433;28;20312;-56
2021/03/08 09:13:30;;;;;;;5.83;1.70;;;7.30;99.90;;;;;;5008241;28;20248;-53
2021/03/08 09:16:42;;;;;;;6.67;2.00;;;7.50;99.90;;;;;;5004873;28;20248;-56
2021/03/08 09:19:21;;;;;;;5.73;1.77;;;7.60;99.90;;;;;;5005165;28;20597;-54
2021/03/08 09:21:49;;;;;;;4.53;1.70;;;7.70;99.90;;;;;;5005005;28;20241;-55
2021/03/08 09:24:33;;;;;;;5.03;1.77;;;7.70;99.90;;;;;;5005275;28;20661;-54
2021/03/08 09:27:03;;;;;;;3.87;1.47;;;7.90;99.90;;;;;;5005479;28;20248;-53
2021/03/08 09:29:30;;;;;;;5.30;1.77;;;8.20;99.90;;;;;;5008695;28;20530;-54
2021/03/08 09:31:58;;;;;;;5.47;1.87;;;8.40;99.90;;;;;;5031671;28;20252;-57
2021/03/08 09:34:44;;;;;;;6.80;1.70;;;8.60;99.90;;;;;;5031792;28;20295;-55
2021/03/08 09:37:14;;;;;;;4.37;1.53;;;8.90;99.90;;;;;;5039938;28;20263;-57
2021/03/08 09:39:48;;;;;;;4.23;1.40;;;9.00;99.90;;;;;;5045923;28;20259;-57
2021/03/08 09:42:17;;;;;;;9.17;1.60;;;9.10;99.90;;;;;;5047313;28;20726;-54
2021/03/08 09:44:47;;;;;;;5.50;1.60;;;9.30;99.90;;;;;;5043362;28;20319;-55
2021/03/08 09:47:17;;;;;;;4.20;1.67;;;9.30;99.90;;;;;;5034581;28;20319;-53
2021/03/08 09:49:49;;;;;;;4.53;1.87;;;9.40;99.90;;;;;;5030747;28;20255;-57
2021/03/08 09:52:34;;;;;;;6.10;1.93;;;9.60;99.90;;;;;;5033104;28;20232;-55
2021/03/08 09:55:03;;;;;;;4.47;1.67;;;9.70;99.90;;;;;;5036597;28;20326;-54
2021/03/08 09:57:37;;;;;;;3.90;1.60;;;9.80;99.90;;;;;;5027455;28;21143;-56
2021/03/08 10:00:08;;;;;;;3.90;1.40;;;9.80;99.90;;;;;;5029276;28;20691;-55
2021/03/08 10:02:39;;;;;;;3.27;1.40;;;9.90;99.90;;;;;;5027542;28;20241;-54
2021/03/08 10:05:10;;;;;;;5.33;1.73;;;10.00;99.90;;;;;;5024079;28;20303;-58
2021/03/08 10:07:51;;;;;;;4.67;1.53;;;10.10;99.90;;;;;;5030124;28;20229;-55
2021/03/08 10:10:20;;;;;;;3.30;1.40;;;10.40;99.90;;;;;;5030277;28;20245;-54
2021/03/08 10:12:58;;;;;;;3.77;1.27;;;10.50;99.90;;;;;;5038413;28;20299;-58
2021/03/08 10:15:27;;;;;;;3.50;1.20;;;10.70;99.90;;;;;;5038431;28;20340;-57
2021/03/08 10:17:59;;;;;;;6.20;1.77;;;10.90;99.90;;;;;;5038855;28;20240;-55
2021/03/08 10:20:27;;;;;;;4.13;1.43;;;11.10;99.90;;;;;;5030516;28;20739;-55
2021/03/08 10:22:55;;;;;;;4.87;1.77;;;11.10;99.90;;;;;;5027534;28;20237;-57
2021/03/08 10:25:25;;;;;;;3.30;1.37;;;11.20;99.90;;;;;;5031580;28;20252;-54
2021/03/08 10:27:59;;;;;;;4.83;1.60;;;11.30;99.90;;;;;;5035911;28;20240;-54
2021/03/08 10:30:29;;;;;;;4.57;1.50;;;11.30;99.90;;;;;;5030289;28;20294;-53
2021/03/08 10:33:01;;;;;;;3.07;1.30;;;11.40;99.90;;;;;;5040812;28;20246;-53
2021/03/08 10:35:31;;;;;;;3.10;1.33;;;11.40;99.90;;;;;;5015189;28;20245;-53
2021/03/08 10:38:22;;;;;;;5.50;1.53;;;11.40;99.90;;;;;;5046328;28;20248;-53
2021/03/08 10:40:50;;;;;;;5.83;1.90;;;11.50;99.90;;;;;;5048718;28;20256;-56
2021/03/08 10:43:21;;;;;;;5.90;1.50;;;11.50;99.90;;;;;;5040117;28;20246;-56
2021/03/08 10:45:49;;;;;;;4.17;1.50;;;11.60;99.90;;;;;;5034970;28;20238;-56
2021/03/08 10:48:18;;;;;;;4.03;1.30;;;11.60;99.90;;;;;;5037425;28;20579;-54
2021/03/08 10:50:50;;;;;;;3.23;1.30;;;11.50;99.90;;;;;;5033839;28;20632;-56
2021/03/08 10:53:34;;;;;;;4.67;1.30;;;11.70;99.90;;;;;;5033881;28;20230;-53
2021/03/08 10:56:01;;;;;;;2.57;1.27;;;11.80;99.90;;;;;;5030719;28;20244;-54
2021/03/08 10:58:36;;;;;;;4.50;1.40;;;11.90;99.90;;;;;;5045531;28;20767;-55
2021/03/08 11:01:08;;;;;;;2.57;1.20;;;12.00;99.90;;;;;;5035533;28;20239;-55
2021/03/08 11:03:39;;;;;;;2.37;1.03;;;12.10;99.90;;;;;;5048537;28;20241;-53
2021/03/08 11:06:09;;;;;;;2.70;1.20;;;12.00;99.90;;;;;;5045493;28;20309;-54
2021/03/08 11:08:40;;;;;;;4.37;0.97;;;11.90;99.90;;;;;;5045130;28;20571;-54
2021/03/08 11:11:19;;;;;;;1.90;0.90;;;11.90;99.90;;;;;;5046955;28;20277;-53
2021/03/08 11:13:49;;;;;;;1.37;0.90;;;12.00;99.90;;;;;;5032934;28;20684;-56
2021/03/08 11:16:18;;;;;;;3.10;1.17;;;12.20;99.90;;;;;;5041806;28;20902;-56
2021/03/08 11:18:46;;;;;;;3.13;1.17;;;12.30;99.90;;;;;;5032007;28;20234;-54
2021/03/08 11:21:26;;;;;;;2.77;0.90;;;12.40;99.90;;;;;;5034962;28;20267;-54
2021/03/08 11:23:55;;;;;;;2.30;1.10;;;12.30;99.90;;;;;;5030879;28;20329;-55
2021/03/08 11:26:22;;;;;;;1.73;0.80;;;12.50;99.90;;;;;;5035758;28;20533;-54
2021/03/08 11:28:51;;;;;;;2.90;1.00;;;12.60;99.90;;;;;;5030613;28;20704;-54
2021/03/08 11:31:23;;;;;;;2.17;0.77;;;12.80;99.90;;;;;;5028423;28;20236;-53
2021/03/08 11:33:52;;;;;;;0.90;0.70;;;12.90;99.90;;;;;;5045792;28;20229;-56
2021/03/08 11:36:31;;;;;;;2.87;1.17;;;12.90;99.90;;;;;;5042448;28;20740;-53
2021/03/08 11:39:04;;;;;;;1.37;0.73;;;12.90;98.90;;;;;;5032957;28;20237;-53
2021/03/08 11:41:34;;;;;;;3.57;0.80;;;12.60;98.30;;;;;;1006022;28;10001994;-56
2021/03/08 11:44:02;;;;;;;2.40;1.17;;;12.60;96.20;;;;;;5037041;28;20278;-52
2021/03/08 11:46:29;;;;;;;1.20;0.80;;;12.60;95.90;;;;;;5039821;28;20265;-53
2021/03/08 11:49:02;;;;;;;1.47;0.70;;;12.80;99.00;;;;;;5019279;28;20234;-57
2021/03/08 11:51:30;;;;;;;2.03;0.80;;;12.80;93.70;;;;;;5024916;28;20331;-54
2021/03/08 11:53:58;;;;;;;3.40;1.57;;;12.60;96.30;;;;;;5032151;28;20323;-55
2021/03/08 11:56:26;;;;;;;1.73;1.20;;;12.60;94.70;;;;;;5022125;28;20240;-54
2021/03/08 11:58:55;;;;;;;2.00;1.10;;;12.40;96.40;;;;;;5031825;28;20241;-55
2021/03/08 12:01:23;;;;;;;2.93;1.10;;;12.30;96.40;;;;;;5036053;28;20727;-55
2021/03/08 12:03:50;;;;;;;2.37;1.00;;;12.10;99.80;;;;;;5038096;28;20277;-54
2021/03/08 12:06:18;;;;;;;1.97;0.80;;;12.00;96.80;;;;;;5034216;28;20691;-54
2021/03/08 12:08:47;;;;;;;1.77;0.80;;;11.90;96.60;;;;;;5033151;28;20732;-53
2021/03/08 12:11:15;;;;;;;2.37;1.20;;;11.80;98.00;;;;;;5042157;28;20266;-54
2021/03/08 12:13:42;;;;;;;2.83;1.00;;;11.70;97.30;;;;;;5044472;28;20289;-52
2021/03/08 12:16:09;;;;;;;1.60;1.10;;;11.70;96.70;;;;;;5053321;28;20257;-54
2021/03/08 12:18:38;;;;;;;1.70;0.90;;;11.50;98.20;;;;;;5053510;28;20235;-54
2021/03/08 12:21:06;;;;;;;1.20;0.80;;;11.40;97.60;;;;;;5038717;28;20239;-54
2021/03/08 12:23:34;;;;;;;1.40;0.80;;;11.30;96.90;;;;;;5036049;28;20229;-56
2021/03/08 12:26:02;;;;;;;3.53;0.83;;;11.30;97.00;;;;;;5038539;28;20305;-55
2021/03/08 12:28:29;;;;;;;1.23;0.80;;;11.30;95.30;;;;;;5049647;28;20249;-53
2021/03/08 12:31:13;;;;;;;1.40;0.70;;;11.20;93.50;;;;;;5051601;28;20231;-52
2021/03/08 12:33:42;;;;;;;1.10;0.67;;;11.10;93.80;;;;;;5041965;28;20386;-51
2021/03/08 12:36:10;;;;;;;1.73;0.80;;;11.00;95.20;;;;;;5034999;28;20726;-52
2021/03/08 12:38:44;;;;;;;1.57;0.97;;;10.90;97.00;;;;;;5039533;28;20232;-57
2021/03/08 12:41:11;;;;;;;2.53;0.90;;;10.80;97.90;;;;;;5035249;28;20304;-52
2021/03/08 12:43:40;;;;;;;1.23;0.73;;;10.80;99.00;;;;;;5041105;28;20672;-52
2021/03/08 12:46:08;;;;;;;1.97;1.00;;;10.70;93.60;;;;;;5034037;28;20857;-53
2021/03/08 12:48:36;;;;;;;2.23;1.03;;;10.50;97.70;;;;;;5031531;28;20265;-55
2021/03/08 12:51:04;;;;;;;2.53;0.90;;;10.60;93.20;;;;;;5030946;28;20318;-52
2021/03/08 12:53:32;;;;;;;1.67;0.90;;;10.30;95.30;;;;;;5028441;28;20258;-53
2021/03/08 12:55:59;;;;;;;2.63;1.03;;;10.30;95.70;;;;;;5027282;28;20331;-52
2021/03/08 12:58:26;;;;;;;2.50;0.90;;;10.30;97.50;;;;;;5025622;28;20653;-52
2021/03/08 13:00:54;;;;;;;2.23;1.00;;;10.30;98.50;;;;;;5023380;28;20810;-53
2021/03/08 13:03:21;;;;;;;1.80;1.03;;;10.50;96.40;;;;;;5025940;28;20245;-53
2021/03/08 13:05:49;;;;;;;1.90;1.00;;;10.50;96.10;;;;;;5019620;28;20230;-52
2021/03/08 13:08:17;;;;;;;4.50;1.10;;;10.30;95.80;;;;;;5020148;28;20234;-53
2021/03/08 13:10:45;;;;;;;1.47;0.83;;;10.40;95.50;;;;;;5034109;28;20290;-52
2021/03/08 13:13:13;;;;;;;1.70;1.10;;;10.50;94.00;;;;;;5032787;28;20241;-55
2021/03/08 13:15:40;;;;;;;2.60;1.00;;;10.60;93.40;;;;;;5027265;28;20296;-54